createdAt,value
2023-01-13T00:01:08.052Z,0.80
2023-01-13T00:03:38.234Z,0.70
2023-01-13T00:06:07.500Z,0.80
2023-01-13T00:08:35.986Z,0.90
2023-01-13T00:11:03.947Z,0.90
2023-01-13T00:13:33.783Z,0.77
2023-01-13T00:16:05.038Z,0.70
2023-01-13T00:18:33.696Z,0.70
2023-01-13T00:21:04.773Z,0.60
2023-01-13T00:23:34.249Z,0.80
2023-01-13T00:26:03.826Z,0.70
2023-01-13T00:28:31.838Z,0.90
2023-01-13T00:31:06.404Z,0.63
2023-01-13T00:33:34.488Z,0.80
2023-01-13T00:36:05.314Z,0.70
2023-01-13T00:38:34.736Z,0.83
2023-01-13T00:41:04.693Z,0.60
2023-01-13T00:43:33.680Z,0.70
2023-01-13T00:46:02.232Z,0.70
2023-01-13T00:48:31.274Z,0.70
2023-01-13T00:51:01.151Z,0.70
2023-01-13T00:53:33.974Z,0.70
2023-01-13T00:56:02.325Z,0.30
2023-01-13T00:58:33.074Z,0.60
2023-01-13T01:01:01.937Z,0.70
2023-01-13T01:03:29.989Z,0.90
2023-01-13T01:05:57.974Z,0.80
2023-01-13T01:08:25.888Z,0.70
2023-01-13T01:11:03.544Z,0.70
2023-01-13T01:13:31.495Z,1.10
2023-01-13T01:15:59.669Z,0.80
2023-01-13T01:18:27.659Z,0.90
2023-01-13T01:20:55.582Z,0.90
2023-01-13T01:23:23.536Z,0.80
2023-01-13T01:25:51.455Z,0.70
2023-01-13T01:28:20.884Z,0.70
2023-01-13T01:30:48.845Z,0.70
2023-01-13T01:33:16.987Z,0.80
2023-01-13T01:35:44.939Z,0.70
2023-01-13T01:38:12.966Z,0.80
2023-01-13T01:40:40.959Z,1.00
2023-01-13T01:43:33.633Z,0.60
2023-01-13T01:46:02.935Z,0.90
2023-01-13T01:48:35.186Z,0.80
2023-01-13T01:51:04.116Z,0.60
2023-01-13T01:53:33.514Z,0.83
2023-01-13T01:56:02.728Z,0.70
2023-01-13T01:58:34.248Z,0.90
2023-01-13T02:01:03.705Z,0.60
2023-01-13T02:03:32.973Z,0.70
2023-01-13T02:06:01.096Z,0.77
2023-01-13T02:08:29.172Z,0.90
2023-01-13T02:10:57.105Z,0.60
2023-01-13T02:13:24.323Z,0.80
2023-01-13T02:15:58.770Z,0.90
2023-01-13T02:18:39.407Z,0.70
2023-01-13T02:21:36.587Z,0.70
2023-01-13T02:24:49.792Z,0.70
2023-01-13T02:27:49.049Z,0.60
2023-01-13T02:30:48.570Z,0.77
2023-01-13T02:33:28.139Z,0.87
2023-01-13T02:36:02.287Z,0.70
2023-01-13T02:38:35.597Z,0.60
2023-01-13T02:41:22.516Z,0.83
2023-01-13T02:44:10.747Z,0.70
2023-01-13T02:46:50.637Z,0.70
2023-01-13T02:49:25.790Z,0.63
2023-01-13T02:51:59.764Z,0.77
2023-01-13T02:54:30.563Z,0.60
2023-01-13T02:57:00.457Z,0.97
2023-01-13T02:59:29.382Z,0.70
2023-01-13T03:02:00.178Z,0.70
2023-01-13T03:04:55.335Z,0.90
2023-01-13T03:07:53.350Z,0.70
2023-01-13T03:10:31.961Z,0.80
2023-01-13T03:13:09.357Z,0.60
2023-01-13T03:15:44.672Z,0.83
2023-01-13T03:18:28.699Z,0.70
2023-01-13T03:21:03.345Z,0.63
2023-01-13T03:23:36.433Z,0.63
2023-01-13T03:26:09.753Z,0.60
2023-01-13T03:28:41.905Z,0.60
2023-01-13T03:31:14.526Z,0.60
2023-01-13T03:33:48.198Z,0.60
2023-01-13T03:36:18.930Z,0.70
2023-01-13T03:38:52.326Z,0.90
2023-01-13T03:41:24.290Z,0.80
2023-01-13T03:44:32.654Z,0.80
2023-01-13T03:47:07.906Z,0.90
2023-01-13T03:49:40.665Z,0.90
2023-01-13T03:52:10.802Z,0.87
2023-01-13T03:54:45.279Z,0.80
2023-01-13T03:57:16.572Z,0.90
2023-01-13T03:59:48.707Z,0.80
2023-01-13T04:02:22.709Z,0.93
2023-01-13T04:04:56.879Z,0.80
2023-01-13T04:07:33.753Z,0.70
2023-01-13T04:10:06.331Z,0.90
2023-01-13T04:12:51.302Z,0.80
2023-01-13T04:15:22.393Z,0.70
2023-01-13T04:17:50.924Z,0.70
2023-01-13T04:20:20.186Z,0.90
2023-01-13T04:22:47.999Z,0.70
2023-01-13T04:25:15.846Z,0.80
2023-01-13T04:27:43.537Z,0.70
2023-01-13T04:30:12.402Z,0.90
2023-01-13T04:32:40.399Z,0.90
2023-01-13T04:35:08.644Z,1.10
2023-01-13T04:37:37.768Z,1.23
2023-01-13T04:40:06.790Z,1.30
2023-01-13T04:42:34.533Z,0.90
2023-01-13T04:45:02.228Z,0.90
2023-01-13T04:47:29.925Z,1.37
2023-01-13T04:49:57.626Z,1.33
2023-01-13T04:52:25.358Z,1.03
2023-01-13T04:54:54.420Z,0.80
2023-01-13T04:57:22.237Z,0.90
2023-01-13T04:59:49.920Z,0.90
2023-01-13T05:02:19.814Z,1.00
2023-01-13T05:04:48.108Z,1.00
2023-01-13T05:07:17.096Z,1.10
2023-01-13T05:09:44.875Z,1.03
2023-01-13T05:12:31.719Z,1.20
2023-01-13T05:15:17.244Z,1.10
2023-01-13T05:17:45.223Z,1.40
2023-01-13T05:20:13.633Z,1.17
2023-01-13T05:22:59.121Z,0.97
2023-01-13T05:25:28.074Z,1.13
2023-01-13T05:27:59.328Z,1.10
2023-01-13T05:30:29.237Z,0.80
2023-01-13T05:32:57.153Z,1.40
2023-01-13T05:35:25.289Z,1.03
2023-01-13T05:37:53.057Z,1.20
2023-01-13T05:40:38.306Z,1.60
2023-01-13T05:43:24.659Z,1.20
2023-01-13T05:45:57.511Z,1.10
2023-01-13T05:48:26.990Z,1.50
2023-01-13T05:50:55.332Z,1.03
2023-01-13T05:53:24.158Z,1.60
2023-01-13T05:55:52.610Z,1.83
2023-01-13T05:58:23.476Z,1.50
2023-01-13T06:00:51.463Z,1.17
2023-01-13T06:03:20.872Z,1.87
2023-01-13T06:05:48.851Z,1.60
2023-01-13T06:08:16.626Z,1.53
2023-01-13T06:10:44.317Z,1.63
2023-01-13T06:13:12.004Z,1.40
2023-01-13T06:15:41.028Z,1.20
2023-01-13T06:18:08.807Z,1.20
2023-01-13T06:20:36.850Z,1.40
2023-01-13T06:23:05.008Z,1.30
2023-01-13T06:25:41.918Z,1.43
2023-01-13T06:28:10.104Z,1.43
2023-01-13T06:30:44.061Z,1.10
2023-01-13T06:33:15.626Z,1.20
2023-01-13T06:35:47.509Z,1.30
2023-01-13T06:38:18.211Z,1.50
2023-01-13T06:40:46.279Z,1.70
2023-01-13T06:43:16.804Z,1.70
2023-01-13T06:45:48.610Z,1.00
2023-01-13T06:48:17.469Z,2.10
2023-01-13T06:50:45.444Z,1.53
2023-01-13T06:53:13.161Z,2.00
2023-01-13T06:55:40.858Z,1.87
2023-01-13T06:58:08.705Z,1.60
2023-01-13T07:00:37.475Z,1.80
2023-01-13T07:03:14.749Z,1.80
2023-01-13T07:05:51.471Z,1.77
2023-01-13T07:08:19.234Z,1.80
2023-01-13T07:10:47.211Z,1.70
2023-01-13T07:13:32.427Z,1.57
2023-01-13T07:16:02.878Z,1.87
2023-01-13T07:18:34.307Z,1.67
2023-01-13T07:21:03.530Z,2.00
2023-01-13T07:23:34.609Z,2.13
2023-01-13T07:26:02.413Z,1.20
2023-01-13T07:28:31.578Z,1.93
2023-01-13T07:31:00.188Z,1.63
2023-01-13T07:33:28.371Z,1.53
2023-01-13T07:36:02.251Z,1.40
2023-01-13T07:38:30.889Z,1.20
2023-01-13T07:40:58.695Z,1.60
2023-01-13T07:43:34.261Z,1.33
2023-01-13T07:46:04.619Z,1.53
2023-01-13T07:48:33.847Z,1.60
2023-01-13T07:51:04.587Z,1.33
2023-01-13T07:53:33.008Z,1.13
2023-01-13T07:56:01.655Z,2.00
2023-01-13T07:58:30.392Z,1.27
2023-01-13T08:00:58.591Z,1.10
2023-01-13T08:03:27.364Z,1.60
2023-01-13T08:05:55.242Z,1.80
2023-01-13T08:08:24.291Z,3.00
2023-01-13T08:10:51.974Z,1.90
2023-01-13T08:13:19.959Z,1.90
2023-01-13T08:15:50.300Z,1.90
2023-01-13T08:18:20.782Z,2.20
2023-01-13T08:20:49.513Z,1.57
2023-01-13T08:23:18.122Z,2.00
2023-01-13T08:25:47.611Z,2.60
2023-01-13T08:28:16.703Z,1.40
2023-01-13T08:30:44.607Z,1.87
2023-01-13T08:33:13.591Z,1.40
2023-01-13T08:35:42.522Z,1.90
2023-01-13T08:38:10.565Z,1.70
2023-01-13T08:40:40.057Z,2.20
2023-01-13T08:43:09.093Z,2.20
2023-01-13T08:45:36.943Z,2.00
2023-01-13T08:48:05.204Z,2.10
2023-01-13T08:50:32.960Z,1.70
2023-01-13T08:53:01.207Z,1.93
2023-01-13T08:55:28.937Z,1.60
2023-01-13T08:58:14.053Z,1.43
2023-01-13T09:00:44.442Z,1.40
2023-01-13T09:03:12.178Z,1.70
2023-01-13T09:05:39.905Z,1.17
2023-01-13T09:08:07.666Z,1.60
2023-01-13T09:10:35.933Z,1.40
2023-01-13T09:13:11.628Z,2.63
2023-01-13T09:15:40.193Z,1.50
2023-01-13T09:18:09.332Z,3.07
2023-01-13T09:20:37.784Z,1.83
2023-01-13T09:23:08.845Z,1.63
2023-01-13T09:25:37.768Z,1.60
2023-01-13T09:28:05.915Z,1.47
2023-01-13T09:30:33.686Z,1.70
2023-01-13T09:33:19.198Z,2.13
2023-01-13T09:35:48.324Z,1.70
2023-01-13T09:38:16.013Z,1.80
2023-01-13T09:40:44.410Z,1.43
2023-01-13T09:43:38.152Z,1.80
2023-01-13T09:46:29.014Z,2.77
2023-01-13T09:48:59.588Z,1.77
2023-01-13T09:51:35.142Z,1.70
2023-01-13T09:54:07.552Z,3.03
2023-01-13T09:56:35.229Z,1.90
2023-01-13T09:59:03.104Z,1.60
2023-01-13T10:01:36.357Z,1.93
2023-01-13T10:04:05.798Z,1.57
2023-01-13T10:06:38.720Z,1.67
2023-01-13T10:09:07.087Z,2.30
2023-01-13T10:11:56.662Z,1.50
2023-01-13T10:14:28.338Z,2.30
2023-01-13T10:17:11.748Z,1.70
2023-01-13T10:19:45.252Z,1.87
2023-01-13T10:22:28.961Z,1.50
2023-01-13T10:25:18.193Z,1.80
2023-01-13T10:27:49.874Z,1.33
2023-01-13T10:30:23.827Z,1.80
2023-01-13T10:32:55.707Z,1.70
2023-01-13T10:35:51.988Z,1.80
2023-01-13T10:38:23.938Z,2.37
2023-01-13T10:40:54.653Z,1.60
2023-01-13T10:43:22.853Z,1.23
2023-01-13T10:46:03.087Z,1.60
2023-01-13T10:48:36.722Z,1.70
2023-01-13T10:51:12.665Z,1.73
2023-01-13T10:53:53.513Z,2.07
2023-01-13T10:56:23.573Z,1.70
2023-01-13T10:58:51.898Z,1.27
2023-01-13T11:01:25.751Z,1.57
2023-01-13T11:03:54.934Z,2.07
2023-01-13T11:06:25.687Z,1.90
2023-01-13T11:08:58.191Z,1.90
2023-01-13T11:11:36.862Z,2.00
2023-01-13T11:14:26.194Z,1.93
2023-01-13T11:16:59.596Z,1.60
2023-01-13T11:19:32.590Z,1.97
2023-01-13T11:22:05.619Z,1.57
2023-01-13T11:24:40.508Z,1.50
2023-01-13T11:27:15.447Z,1.73
2023-01-13T11:29:54.891Z,1.50
2023-01-13T11:32:25.371Z,1.70
2023-01-13T11:34:58.726Z,1.50
2023-01-13T11:37:28.707Z,2.00
2023-01-13T11:40:03.831Z,1.40
2023-01-13T11:42:37.372Z,2.00
2023-01-13T11:45:16.549Z,1.80
2023-01-13T11:47:45.785Z,1.83
2023-01-13T11:50:19.717Z,2.00
2023-01-13T11:53:10.962Z,2.13
2023-01-13T11:55:50.408Z,1.60
2023-01-13T11:58:45.595Z,1.53
2023-01-13T12:01:28.704Z,1.70
2023-01-13T12:04:06.435Z,1.80
2023-01-13T12:06:37.970Z,1.90
2023-01-13T12:09:23.642Z,2.63
2023-01-13T12:12:20.109Z,1.50
2023-01-13T12:15:02.729Z,1.87
2023-01-13T12:17:38.960Z,1.90
2023-01-13T12:20:23.849Z,2.03
2023-01-13T12:22:56.070Z,2.07
2023-01-13T12:25:31.627Z,1.80
2023-01-13T12:28:06.820Z,2.00
2023-01-13T12:30:41.469Z,1.70
2023-01-13T12:33:18.795Z,2.23
2023-01-13T12:35:54.889Z,1.73
2023-01-13T12:38:30.228Z,2.10
2023-01-13T12:41:08.322Z,2.10
2023-01-13T12:43:59.855Z,1.67
2023-01-13T12:46:53.153Z,2.00
2023-01-13T12:49:32.389Z,1.97
2023-01-13T12:52:17.661Z,2.30
2023-01-13T12:55:19.861Z,2.50
2023-01-13T12:58:18.077Z,2.27
2023-01-13T13:01:12.803Z,2.87
2023-01-13T13:03:40.911Z,2.17
2023-01-13T13:06:17.306Z,2.60
2023-01-13T13:09:03.442Z,1.73
2023-01-13T13:12:01.544Z,3.20
2023-01-13T13:15:04.385Z,2.20
2023-01-13T13:18:08.591Z,1.60
2023-01-13T13:20:57.743Z,1.40
2023-01-13T13:23:49.609Z,2.10
2023-01-13T13:26:32.678Z,1.60
2023-01-13T13:29:24.963Z,1.50
2023-01-13T13:32:22.959Z,2.60
2023-01-13T13:35:02.885Z,2.20
2023-01-13T13:38:10.237Z,3.33
2023-01-13T13:41:00.154Z,2.00
2023-01-13T13:43:48.087Z,2.83
2023-01-13T13:46:45.320Z,2.37
2023-01-13T13:49:13.614Z,2.40
2023-01-13T13:51:49.169Z,2.57
2023-01-13T13:54:20.328Z,2.07
2023-01-13T13:56:50.222Z,2.27
2023-01-13T13:59:22.336Z,2.50
2023-01-13T14:02:00.714Z,2.30
2023-01-13T14:04:31.013Z,1.80
2023-01-13T14:07:01.872Z,2.23
2023-01-13T14:09:42.003Z,2.00
2023-01-13T14:12:17.982Z,2.70
2023-01-13T14:14:46.477Z,2.17
2023-01-13T14:17:20.610Z,2.20
2023-01-13T14:19:54.441Z,1.77
2023-01-13T14:22:23.811Z,1.87
2023-01-13T14:24:55.526Z,1.70
2023-01-13T14:27:26.210Z,2.00
2023-01-13T14:29:55.008Z,2.40
2023-01-13T14:32:32.794Z,1.80
2023-01-13T14:35:00.572Z,2.00
2023-01-13T14:37:36.002Z,1.93
2023-01-13T14:40:04.529Z,1.90
2023-01-13T14:42:35.408Z,2.20
2023-01-13T14:45:03.665Z,1.90
2023-01-13T14:47:33.875Z,2.67
2023-01-13T14:50:05.909Z,2.70
2023-01-13T14:52:37.018Z,2.57
2023-01-13T14:55:27.890Z,1.77
2023-01-13T14:58:24.100Z,1.90
2023-01-13T15:00:53.445Z,2.53
2023-01-13T15:03:22.217Z,2.60
2023-01-13T15:05:51.422Z,2.23
2023-01-13T15:08:33.974Z,2.00
2023-01-13T15:11:03.818Z,1.97
2023-01-13T15:13:37.092Z,2.57
2023-01-13T15:16:07.358Z,2.10
2023-01-13T15:18:40.239Z,2.00
2023-01-13T15:21:09.159Z,2.47
2023-01-13T15:23:39.842Z,1.90
2023-01-13T15:26:18.677Z,2.87
2023-01-13T15:28:46.515Z,2.30
2023-01-13T15:31:14.303Z,1.87
2023-01-13T15:33:43.132Z,2.00
2023-01-13T15:36:20.901Z,2.33
2023-01-13T15:38:50.135Z,2.07
2023-01-13T15:41:38.095Z,1.70
2023-01-13T15:44:23.505Z,3.97
2023-01-13T15:46:52.551Z,1.63
2023-01-13T15:49:25.996Z,2.77
2023-01-13T15:51:53.724Z,2.33
2023-01-13T15:54:24.547Z,2.07
2023-01-13T15:56:53.175Z,2.50
2023-01-13T15:59:24.907Z,2.00
2023-01-13T16:01:52.715Z,2.03
2023-01-13T16:04:20.439Z,2.60
2023-01-13T16:06:48.359Z,2.67
2023-01-13T16:09:17.712Z,2.50
2023-01-13T16:11:46.834Z,2.78
2023-01-13T16:14:14.535Z,2.57
2023-01-13T16:16:42.592Z,1.90
2023-01-13T16:19:13.063Z,2.20
2023-01-13T16:21:41.109Z,2.90
2023-01-13T16:24:08.899Z,2.83
2023-01-13T16:26:38.787Z,1.93
2023-01-13T16:29:09.427Z,2.27
2023-01-13T16:31:37.582Z,1.80
2023-01-13T16:34:06.689Z,3.20
2023-01-13T16:36:36.973Z,2.20
2023-01-13T16:39:06.301Z,2.03
2023-01-13T16:41:34.796Z,2.40
2023-01-13T16:44:05.959Z,2.13
2023-01-13T16:46:35.193Z,1.93
2023-01-13T16:49:05.489Z,2.30
2023-01-13T16:51:34.151Z,2.50
2023-01-13T16:54:01.979Z,1.80
2023-01-13T16:56:32.032Z,2.70
2023-01-13T16:59:02.427Z,1.80
2023-01-13T17:01:31.621Z,2.50
2023-01-13T17:04:01.518Z,1.93
2023-01-13T17:06:33.358Z,2.33
2023-01-13T17:09:04.775Z,3.03
2023-01-13T17:11:32.450Z,1.90
2023-01-13T17:14:00.233Z,2.53
2023-01-13T17:16:28.216Z,2.03
2023-01-13T17:18:56.076Z,1.80
2023-01-13T17:21:25.116Z,1.67
2023-01-13T17:23:53.061Z,2.33
2023-01-13T17:26:32.063Z,1.90
2023-01-13T17:29:01.225Z,2.00
2023-01-13T17:31:29.801Z,1.83
2023-01-13T17:33:57.824Z,2.87
2023-01-13T17:36:26.861Z,2.23
2023-01-13T17:38:55.629Z,1.83
2023-01-13T17:41:23.768Z,2.00
2023-01-13T17:43:51.662Z,1.83
2023-01-13T17:46:20.029Z,2.00
2023-01-13T17:48:48.150Z,1.70
2023-01-13T17:51:17.316Z,2.20
2023-01-13T17:53:46.831Z,2.20
2023-01-13T17:56:16.798Z,1.70
2023-01-13T17:58:45.337Z,2.00
2023-01-13T18:01:17.136Z,2.00
2023-01-13T18:03:45.161Z,2.20
2023-01-13T18:06:20.478Z,1.70
2023-01-13T18:08:49.838Z,2.00
2023-01-13T18:11:19.624Z,2.47
2023-01-13T18:13:47.628Z,2.03
2023-01-13T18:16:17.483Z,2.13
2023-01-13T18:18:46.685Z,1.90
2023-01-13T18:21:37.237Z,2.07
2023-01-13T18:24:25.142Z,2.20
2023-01-13T18:27:10.493Z,2.17
2023-01-13T18:29:38.189Z,2.10
2023-01-13T18:32:07.514Z,2.33
2023-01-13T18:34:35.527Z,1.70
2023-01-13T18:37:05.264Z,2.20
2023-01-13T18:39:34.310Z,2.30
2023-01-13T18:42:19.330Z,2.40
2023-01-13T18:44:47.004Z,2.07
2023-01-13T18:47:14.731Z,2.20
2023-01-13T18:49:42.449Z,2.00
2023-01-13T18:52:10.149Z,2.13
2023-01-13T18:54:39.212Z,1.63
2023-01-13T18:57:07.257Z,2.20
2023-01-13T18:59:34.997Z,1.80
2023-01-13T19:02:03.093Z,2.13
2023-01-13T19:04:32.499Z,1.40
2023-01-13T19:07:01.029Z,2.23
2023-01-13T19:09:29.519Z,2.53
2023-01-13T19:11:59.112Z,2.47
2023-01-13T19:14:37.374Z,2.17
2023-01-13T19:17:09.298Z,3.40
2023-01-13T19:19:40.690Z,2.20
2023-01-13T19:22:09.212Z,2.20
2023-01-13T19:24:36.952Z,2.53
2023-01-13T19:27:06.021Z,2.00
2023-01-13T19:29:33.999Z,2.03
2023-01-13T19:32:02.094Z,2.33
2023-01-13T19:34:30.087Z,2.00
2023-01-13T19:36:57.813Z,2.10
2023-01-13T19:39:26.041Z,2.17
2023-01-13T19:42:11.547Z,2.40
2023-01-13T19:44:58.375Z,3.03
2023-01-13T19:47:26.087Z,2.80
2023-01-13T19:49:54.008Z,2.80
2023-01-13T19:52:21.992Z,3.20
2023-01-13T19:54:49.737Z,2.57
2023-01-13T19:57:17.419Z,2.90
2023-01-13T19:59:46.462Z,3.03
2023-01-13T20:02:15.842Z,3.10
2023-01-13T20:04:45.347Z,2.93
2023-01-13T20:07:14.506Z,2.93
2023-01-13T20:09:44.564Z,2.70
2023-01-13T20:12:13.367Z,2.70
2023-01-13T20:14:43.973Z,2.30
2023-01-13T20:17:14.691Z,3.03
2023-01-13T20:19:42.821Z,3.07
2023-01-13T20:22:11.221Z,2.57
2023-01-13T20:24:39.477Z,2.27
2023-01-13T20:27:07.660Z,2.83
2023-01-13T20:29:35.584Z,2.73
2023-01-13T20:32:04.212Z,2.10
2023-01-13T20:34:33.280Z,2.60
2023-01-13T20:37:01.234Z,3.00
2023-01-13T20:39:29.022Z,3.53
2023-01-13T20:42:22.921Z,3.07
2023-01-13T20:44:50.598Z,3.20
2023-01-13T20:47:18.392Z,2.43
2023-01-13T20:49:47.479Z,2.40
2023-01-13T20:52:15.201Z,2.70
2023-01-13T20:54:43.107Z,2.90
2023-01-13T20:57:11.666Z,2.47
2023-01-13T20:59:40.138Z,2.60
2023-01-13T21:02:12.803Z,2.93
2023-01-13T21:04:40.944Z,2.43
2023-01-13T21:07:10.720Z,2.03
2023-01-13T21:09:38.515Z,1.80
2023-01-13T21:12:24.618Z,2.13
2023-01-13T21:15:10.085Z,2.43
2023-01-13T21:17:55.523Z,2.70
2023-01-13T21:20:23.375Z,3.10
2023-01-13T21:22:52.670Z,4.30
2023-01-13T21:25:21.009Z,3.20
2023-01-13T21:27:49.023Z,2.90
2023-01-13T21:30:17.975Z,3.10
2023-01-13T21:32:47.190Z,2.40
2023-01-13T21:35:15.679Z,2.97
2023-01-13T21:37:44.607Z,3.20
2023-01-13T21:40:15.180Z,2.80
2023-01-13T21:43:00.699Z,2.87
2023-01-13T21:45:46.258Z,2.57
2023-01-13T21:48:14.120Z,3.40
2023-01-13T21:50:42.156Z,2.77
2023-01-13T21:53:09.867Z,2.73
2023-01-13T21:55:38.859Z,3.97
2023-01-13T21:58:11.717Z,3.20
2023-01-13T22:00:40.555Z,2.90
2023-01-13T22:03:09.204Z,3.10
2023-01-13T22:05:37.467Z,3.17
2023-01-13T22:08:05.514Z,2.63
2023-01-13T22:10:33.444Z,3.07
2023-01-13T22:13:24.153Z,2.60
2023-01-13T22:15:52.076Z,3.00
2023-01-13T22:18:19.751Z,2.17
2023-01-13T22:20:48.654Z,2.40
2023-01-13T22:23:16.987Z,2.53
2023-01-13T22:25:44.659Z,3.20
2023-01-13T22:28:23.674Z,2.80
2023-01-13T22:30:53.355Z,3.33
2023-01-13T22:33:21.223Z,2.90
2023-01-13T22:35:55.357Z,2.57
2023-01-13T22:38:23.697Z,2.60
2023-01-13T22:40:57.527Z,2.60
2023-01-13T22:43:27.814Z,2.50
2023-01-13T22:46:00.890Z,2.57
2023-01-13T22:48:29.242Z,2.67
2023-01-13T22:50:57.263Z,1.93
2023-01-13T22:53:24.918Z,2.87
2023-01-13T22:55:55.850Z,2.10
2023-01-13T22:58:24.426Z,1.90
2023-01-13T23:00:54.842Z,1.90
2023-01-13T23:03:23.076Z,2.00
2023-01-13T23:05:57.664Z,2.00
2023-01-13T23:08:25.363Z,2.10
2023-01-13T23:10:53.275Z,2.30
2023-01-13T23:13:20.959Z,2.23
2023-01-13T23:15:48.624Z,2.17
2023-01-13T23:18:17.646Z,2.00
2023-01-13T23:20:45.351Z,2.17
2023-01-13T23:23:13.059Z,2.17
2023-01-13T23:25:40.745Z,2.40
2023-01-13T23:28:10.636Z,2.30
2023-01-13T23:30:40.834Z,2.27
2023-01-13T23:33:08.515Z,2.30
2023-01-13T23:35:37.601Z,2.40
2023-01-13T23:38:06.067Z,2.57
2023-01-13T23:40:35.271Z,2.60
2023-01-13T23:43:03.157Z,2.47
2023-01-13T23:45:30.979Z,2.73
2023-01-13T23:47:58.739Z,2.30
2023-01-13T23:50:26.451Z,2.10
2023-01-13T23:52:55.455Z,2.77
2023-01-13T23:55:23.200Z,2.40
2023-01-13T23:57:50.945Z,2.07
